Airfield :
LOGIN :

Register | Disclaimer

   EN    FR    IT 

 










Legend :    VFR   Marginal VFR   IFR   Intensive IFR   Very Intensive IFR
Visi :
Ceiling :
>= 8 km
>= 3000ft
5 to 8 km
1000 to 3000 ft
1500m to 5 km
500 to 1000 ft
800 to 1500m
200 to 500 ft
< 800m
< 200 ft
Symbols :   Thunderstorms  Fog  Heavy snow  Heavy precipitations  Wind > 20 kt
SIGMETs :     Misc.  Thunderstorms  Icing  Turbulence  Mountain Waves  Volcanic Ashes






- Airport Elevation : 355 ft
- IATA code : VBS


LIPO - Montichiari - Brescia

CURRENT METAR :
  • 110250Z AUTO 03009KT 5000 RA FEW013/// BKN062/// 09/08 Q1017

EXPIRED METARs :
  • 110220Z AUTO 03009KT 5000 RA FEW012/// BKN059/// 09/08 Q1017
  • 110150Z AUTO 02009KT 7000 RA OVC055/// 09/08 Q1018
  • 110120Z AUTO 02009KT 5000 RA BKN011/// BKN046/// 09/09 Q1018
  • 110050Z AUTO 03010KT 5000 RA OVC010/// 10/09 Q1018
  • 110020Z AUTO 05009KT 6000 RA OVC012/// 10/09 Q1019

TAF TAF LIPO
Valid from the 11 at 00:00 until the 12 at 00:00 UTC


102300Z 1100/1124 VRB05KT 4000 RA SCT030 BKN060



MET'MAP, your aeronautical weather chart ! - Copyright ORBIFLY December 2007 - Disclaimer

ORBIFLY MET'MAP TEAM :

Programming & Development : Alexandra Zaïnal
Concept & original design : Baudouin d'Aumeries
Assistance for programming : Marc-Olivier Méhu
Technical & hardware support : Manuel Goepfert

Contact : metmap@orbifly.com




SOURCES & CREDITS :

   NOAA